PVR weather

Licenciado Gustavo Díaz Ordaz International Airport
Puerto Vallarta, Jalisco, Mexico

Public forecast

Using degrees Celsius for public forecast. Weather courtesy of forecast.io.

METAR (pilot weather report)

Retrieved 2019/04/23 18:46 UTC (58 minutes ago):

MMPR 231846Z 22008KT 15SM BKN270 26/19 A2988 RMK 8/001

TAF (pilot weather forecast)

Retrieved 2019/04/23 18:56 UTC (48 minutes ago):

TAF MMPR 231650Z 2318/2424 20010KT P6SM SCT020 SCT250 TX28/2418Z TN20/2412Z FM240200 03005KT P6SM SCT020 FM241600 20010KT P6SM SCT020 SCT250